createdAt,value
2019-06-26T00:00:12.874Z,28.70
2019-06-26T00:02:40.047Z,28.70
2019-06-26T00:05:10.766Z,28.70
2019-06-26T00:07:38.030Z,28.70
2019-06-26T00:10:05.721Z,28.60
2019-06-26T00:12:33.134Z,28.50
2019-06-26T00:15:01.971Z,28.50
2019-06-26T00:17:30.105Z,28.50
2019-06-26T00:19:58.178Z,28.50
2019-06-26T00:22:26.606Z,28.50
2019-06-26T00:24:54.765Z,28.40
2019-06-26T00:27:23.068Z,28.50
2019-06-26T00:29:51.689Z,28.40
2019-06-26T00:32:20.177Z,28.30
2019-06-26T00:34:48.209Z,28.30
2019-06-26T00:37:16.804Z,28.20
2019-06-26T00:39:45.227Z,28.10
2019-06-26T00:42:13.859Z,28.10
2019-06-26T00:44:42.383Z,28.10
2019-06-26T00:47:11.183Z,28.00
2019-06-26T00:49:39.256Z,28.10
2019-06-26T00:52:09.933Z,28.10
2019-06-26T00:54:37.140Z,28.00
2019-06-26T00:57:07.475Z,28.00
2019-06-26T01:00:06.700Z,27.90
2019-06-26T01:02:34.067Z,27.90
2019-06-26T01:05:03.779Z,27.80
2019-06-26T01:07:31.991Z,27.80
2019-06-26T01:09:59.383Z,27.80
2019-06-26T01:12:26.651Z,27.70
2019-06-26T01:14:53.785Z,27.70
2019-06-26T01:17:20.927Z,27.80
2019-06-26T01:19:48.677Z,27.60
2019-06-26T01:22:15.897Z,27.60
2019-06-26T01:24:42.979Z,27.60
2019-06-26T01:27:09.885Z,27.60
2019-06-26T01:29:37.054Z,27.50
2019-06-26T01:32:04.182Z,27.50
2019-06-26T01:34:31.339Z,27.30
2019-06-26T01:36:58.247Z,27.30
2019-06-26T01:39:26.666Z,27.30
2019-06-26T01:41:54.978Z,27.30
2019-06-26T01:44:23.376Z,27.30
2019-06-26T01:46:51.906Z,27.30
2019-06-26T01:49:20.331Z,27.30
2019-06-26T01:51:48.330Z,27.20
2019-06-26T01:54:16.973Z,27.10
2019-06-26T01:56:46.760Z,27.10
2019-06-26T01:59:15.503Z,27.10
2019-06-26T02:01:43.964Z,27.00
2019-06-26T02:04:15.482Z,27.00
2019-06-26T02:06:53.797Z,27.00
2019-06-26T02:09:22.515Z,26.90
2019-06-26T02:11:50.546Z,26.90
2019-06-26T02:14:30.647Z,26.80
2019-06-26T02:16:51.715Z,26.80
2019-06-26T02:19:20.590Z,26.70
2019-06-26T02:21:49.130Z,26.70
2019-06-26T02:24:17.047Z,26.60
2019-06-26T02:26:45.365Z,26.60
2019-06-26T02:29:13.522Z,26.50
2019-06-26T02:31:42.332Z,26.60
2019-06-26T02:34:10.855Z,26.40
2019-06-26T02:36:42.066Z,26.40
2019-06-26T02:39:09.270Z,26.30
2019-06-26T02:41:37.801Z,26.30
2019-06-26T02:44:06.376Z,26.30
2019-06-26T02:46:34.291Z,26.10
2019-06-26T02:49:03.032Z,26.20
2019-06-26T02:51:31.614Z,26.10
2019-06-26T02:54:00.072Z,26.10
2019-06-26T02:56:28.968Z,26.10
2019-06-26T02:58:56.969Z,26.00
2019-06-26T03:01:25.130Z,26.00
2019-06-26T03:03:53.415Z,25.90
2019-06-26T03:06:21.637Z,25.90
2019-06-26T03:08:49.812Z,26.00
2019-06-26T03:11:18.465Z,25.90
2019-06-26T03:13:46.585Z,25.90
2019-06-26T03:16:14.831Z,25.90
2019-06-26T03:18:43.350Z,25.90
2019-06-26T03:21:11.263Z,25.90
2019-06-26T03:23:39.553Z,25.80
2019-06-26T03:26:08.077Z,25.80
2019-06-26T03:28:36.410Z,25.90
2019-06-26T03:31:05.086Z,25.70
2019-06-26T03:33:33.516Z,25.70
2019-06-26T03:36:02.180Z,25.70
2019-06-26T03:38:30.843Z,25.70
2019-06-26T03:40:59.791Z,25.60
2019-06-26T03:43:28.001Z,25.70
2019-06-26T03:45:56.060Z,25.80
2019-06-26T03:48:24.507Z,25.80
2019-06-26T03:50:52.849Z,25.70
2019-06-26T03:53:21.142Z,25.90
2019-06-26T03:55:50.016Z,26.00
2019-06-26T03:58:18.385Z,25.90
2019-06-26T04:00:46.517Z,26.00
2019-06-26T04:03:15.322Z,26.20
2019-06-26T04:05:43.143Z,26.10
2019-06-26T04:08:11.422Z,26.10
2019-06-26T04:10:43.133Z,25.90
2019-06-26T04:13:08.666Z,25.90
2019-06-26T04:15:41.941Z,26.00
2019-06-26T04:18:07.810Z,26.20
2019-06-26T04:20:36.556Z,26.20
2019-06-26T04:23:04.591Z,26.40
2019-06-26T04:25:33.283Z,26.40
2019-06-26T04:28:02.043Z,26.60
2019-06-26T04:30:30.424Z,26.80
2019-06-26T04:32:58.811Z,26.60
2019-06-26T04:35:27.329Z,26.60
2019-06-26T04:37:55.373Z,26.60
2019-06-26T04:40:23.830Z,26.60
2019-06-26T04:42:52.371Z,26.70
2019-06-26T04:45:21.992Z,26.80
2019-06-26T04:47:50.580Z,27.10
2019-06-26T04:50:20.496Z,27.40
2019-06-26T04:52:49.920Z,27.90
2019-06-26T04:55:18.289Z,28.40
2019-06-26T04:57:49.197Z,29.00
2019-06-26T05:00:21.635Z,29.70
2019-06-26T05:02:49.011Z,30.10
2019-06-26T05:05:16.422Z,30.10
2019-06-26T05:07:43.668Z,30.50
2019-06-26T05:10:12.684Z,30.70
2019-06-26T05:12:40.934Z,30.80
2019-06-26T05:15:10.397Z,31.10
2019-06-26T05:17:38.864Z,31.10
2019-06-26T05:20:08.620Z,30.90
2019-06-26T05:22:36.909Z,31.20
2019-06-26T05:25:05.480Z,31.60
2019-06-26T05:27:33.691Z,32.30
2019-06-26T05:30:02.165Z,32.60
2019-06-26T05:32:31.704Z,32.40
2019-06-26T05:34:59.882Z,32.20
2019-06-26T05:37:28.424Z,32.20
2019-06-26T05:39:56.602Z,32.30
2019-06-26T05:42:24.772Z,32.60
2019-06-26T05:44:53.462Z,32.90
2019-06-26T05:47:22.247Z,33.00
2019-06-26T05:49:50.518Z,33.20
2019-06-26T05:52:18.693Z,33.20
2019-06-26T05:54:48.151Z,33.20
2019-06-26T05:57:24.402Z,33.10
2019-06-26T05:59:57.435Z,33.20
2019-06-26T06:02:25.779Z,33.30
2019-06-26T06:04:54.409Z,33.30
2019-06-26T06:07:22.776Z,33.80
2019-06-26T06:09:50.911Z,34.50
2019-06-26T06:12:18.793Z,34.80
2019-06-26T06:14:46.678Z,35.70
2019-06-26T06:17:14.586Z,35.30
2019-06-26T06:19:45.641Z,35.90
2019-06-26T06:22:12.773Z,36.10
2019-06-26T06:24:40.764Z,36.00
2019-06-26T06:27:08.823Z,36.40
2019-06-26T06:29:36.949Z,36.10
2019-06-26T06:32:05.356Z,35.60
2019-06-26T06:34:33.344Z,35.90
2019-06-26T06:37:01.488Z,35.30
2019-06-26T06:39:29.579Z,35.60
2019-06-26T06:41:58.466Z,35.60
2019-06-26T06:44:26.696Z,36.10
2019-06-26T06:47:03.883Z,36.50
2019-06-26T06:49:25.974Z,36.00
2019-06-26T06:51:53.878Z,35.10
2019-06-26T06:54:21.867Z,35.00
2019-06-26T06:56:49.820Z,35.30
2019-06-26T06:59:17.745Z,35.80
2019-06-26T07:01:45.766Z,36.50
2019-06-26T07:04:13.744Z,36.20
2019-06-26T07:06:41.733Z,36.00
2019-06-26T07:09:10.311Z,36.30
2019-06-26T07:11:38.850Z,36.30
2019-06-26T07:14:06.964Z,36.90
2019-06-26T07:16:35.017Z,37.00
2019-06-26T07:19:03.190Z,36.70
2019-06-26T07:21:31.398Z,35.40
2019-06-26T07:23:59.401Z,34.40
2019-06-26T07:26:27.743Z,33.40
2019-06-26T07:28:55.898Z,33.00
2019-06-26T07:31:23.965Z,32.60
2019-06-26T07:33:55.381Z,32.20
2019-06-26T07:36:22.173Z,31.90
2019-06-26T07:38:50.092Z,31.50
2019-06-26T07:41:18.095Z,31.50
2019-06-26T07:43:46.427Z,31.40
2019-06-26T07:46:14.444Z,31.40
2019-06-26T07:48:42.371Z,31.70
2019-06-26T07:51:10.355Z,32.10
2019-06-26T07:53:38.694Z,31.80
2019-06-26T07:56:06.797Z,31.50
2019-06-26T07:58:34.710Z,31.30
2019-06-26T08:01:02.809Z,30.90
2019-06-26T08:03:30.990Z,30.70
2019-06-26T08:05:59.404Z,30.70
2019-06-26T08:08:28.856Z,30.40
2019-06-26T08:11:01.357Z,30.30
2019-06-26T08:13:29.851Z,30.10
2019-06-26T08:15:58.099Z,29.90
2019-06-26T08:18:26.767Z,30.10
2019-06-26T08:21:11.421Z,29.90
2019-06-26T08:23:27.349Z,29.80
2019-06-26T08:25:56.573Z,30.00
2019-06-26T08:28:24.734Z,29.90
2019-06-26T08:30:58.331Z,29.50
2019-06-26T08:33:26.888Z,29.70
2019-06-26T08:35:55.675Z,29.80
2019-06-26T08:38:23.651Z,30.00
2019-06-26T08:40:52.325Z,30.10
2019-06-26T08:43:20.801Z,30.00
2019-06-26T08:45:51.195Z,30.00
2019-06-26T08:48:38.437Z,30.00
2019-06-26T08:50:49.707Z,29.80
2019-06-26T08:53:18.116Z,30.00
2019-06-26T08:55:50.399Z,30.10
2019-06-26T08:58:18.659Z,30.00
2019-06-26T09:00:47.348Z,30.30
2019-06-26T09:03:15.727Z,30.40
2019-06-26T09:05:48.554Z,30.70
2019-06-26T09:08:14.808Z,31.00
2019-06-26T09:10:45.089Z,30.70
2019-06-26T09:13:13.194Z,30.70
2019-06-26T09:15:41.777Z,30.60
2019-06-26T09:18:14.771Z,30.60
2019-06-26T09:20:43.053Z,30.40
2019-06-26T09:23:11.195Z,30.20
2019-06-26T09:25:39.795Z,30.40
2019-06-26T09:28:08.266Z,30.40
2019-06-26T09:30:38.864Z,30.20
2019-06-26T09:33:07.518Z,30.40
2019-06-26T09:35:35.780Z,30.60
2019-06-26T09:38:04.326Z,30.70
2019-06-26T09:40:32.568Z,30.80
2019-06-26T09:43:05.340Z,30.90
2019-06-26T09:45:33.688Z,30.70
2019-06-26T09:48:01.850Z,30.90
2019-06-26T09:50:30.075Z,30.70
2019-06-26T09:52:58.614Z,31.10
2019-06-26T09:55:32.005Z,31.30
2019-06-26T09:58:00.672Z,31.40
2019-06-26T10:00:29.889Z,31.20
2019-06-26T10:02:58.554Z,31.10
2019-06-26T10:05:32.487Z,31.10
2019-06-26T10:08:00.478Z,31.00
2019-06-26T10:10:29.183Z,31.10
2019-06-26T10:12:57.318Z,30.80
2019-06-26T10:15:25.575Z,31.10
2019-06-26T10:17:55.834Z,31.30
2019-06-26T10:20:23.957Z,31.70
2019-06-26T10:22:52.003Z,31.90
2019-06-26T10:25:20.427Z,32.30
2019-06-26T10:27:48.902Z,32.50
2019-06-26T10:30:21.329Z,32.70
2019-06-26T10:32:49.978Z,32.80
2019-06-26T10:35:18.574Z,33.20
2019-06-26T10:37:47.234Z,33.30
2019-06-26T10:40:16.933Z,33.80
2019-06-26T10:42:47.714Z,34.10
2019-06-26T10:45:16.143Z,34.40
2019-06-26T10:47:44.286Z,34.50
2019-06-26T10:50:13.225Z,34.30
2019-06-26T10:52:41.713Z,34.40
2019-06-26T10:55:10.862Z,34.90
2019-06-26T10:57:39.281Z,34.90
2019-06-26T11:00:07.960Z,35.30
2019-06-26T11:02:36.531Z,35.50
2019-06-26T11:05:06.007Z,35.40
2019-06-26T11:07:36.676Z,35.00
2019-06-26T11:10:05.704Z,34.80
2019-06-26T11:12:33.945Z,34.60
2019-06-26T11:15:02.483Z,34.40
2019-06-26T11:17:30.658Z,34.40
2019-06-26T11:20:01.782Z,34.30
2019-06-26T11:22:30.209Z,34.60
2019-06-26T11:24:58.069Z,34.80
2019-06-26T11:27:26.627Z,34.40
2019-06-26T11:29:55.023Z,34.10
2019-06-26T11:32:27.374Z,33.40
2019-06-26T11:34:55.264Z,32.80
2019-06-26T11:37:23.356Z,33.20
2019-06-26T11:39:51.581Z,33.50
2019-06-26T11:42:19.811Z,33.10
2019-06-26T11:44:50.577Z,32.90
2019-06-26T11:47:18.571Z,32.70
2019-06-26T11:49:59.368Z,32.70
2019-06-26T11:52:16.491Z,32.90
2019-06-26T11:54:44.380Z,33.10
2019-06-26T11:57:16.664Z,33.60
2019-06-26T11:59:44.567Z,33.90
2019-06-26T12:02:12.862Z,34.00
2019-06-26T12:04:42.711Z,34.10
2019-06-26T12:07:10.709Z,34.10
2019-06-26T12:09:39.723Z,33.90
2019-06-26T12:12:08.076Z,33.20
2019-06-26T12:14:36.017Z,33.60
2019-06-26T12:17:04.071Z,34.00
2019-06-26T12:19:31.986Z,34.20
2019-06-26T12:22:05.772Z,34.30
2019-06-26T12:24:33.869Z,34.60
2019-06-26T12:27:01.755Z,34.70
2019-06-26T12:29:32.780Z,34.80
2019-06-26T12:31:59.497Z,34.80
2019-06-26T12:34:31.168Z,35.00
2019-06-26T12:36:59.060Z,34.90
2019-06-26T12:39:26.976Z,34.30
2019-06-26T12:41:55.005Z,33.80
2019-06-26T12:44:23.139Z,34.00
2019-06-26T12:46:53.709Z,34.10
2019-06-26T12:49:21.658Z,34.30
2019-06-26T12:51:49.573Z,34.20
2019-06-26T12:54:18.011Z,34.20
2019-06-26T12:56:45.903Z,34.20
2019-06-26T12:59:15.785Z,33.80
2019-06-26T13:01:43.767Z,33.90
2019-06-26T13:04:11.854Z,34.00
2019-06-26T13:06:39.922Z,34.10
2019-06-26T13:09:08.029Z,34.00
2019-06-26T13:11:41.238Z,34.10
2019-06-26T13:14:09.651Z,34.20
2019-06-26T13:16:37.804Z,34.30
2019-06-26T13:19:05.840Z,34.10
2019-06-26T13:21:34.151Z,33.40
2019-06-26T13:24:06.697Z,32.90
2019-06-26T13:26:35.088Z,32.80
2019-06-26T13:29:03.227Z,32.70
2019-06-26T13:31:31.284Z,32.80
2019-06-26T13:33:59.508Z,32.60
2019-06-26T13:36:27.768Z,32.60
2019-06-26T13:38:56.980Z,32.40
2019-06-26T13:41:24.907Z,32.30
2019-06-26T13:43:53.060Z,32.40
2019-06-26T13:46:21.101Z,32.40
2019-06-26T13:48:49.031Z,32.20
2019-06-26T13:51:21.662Z,32.10
2019-06-26T13:53:49.302Z,32.00
2019-06-26T13:56:17.536Z,32.10
2019-06-26T13:58:45.784Z,32.40
2019-06-26T14:01:13.777Z,32.50
2019-06-26T14:03:41.867Z,33.00
2019-06-26T14:06:10.129Z,33.10
2019-06-26T14:08:38.224Z,32.80
2019-06-26T14:11:07.520Z,32.70
2019-06-26T14:13:35.947Z,32.60
2019-06-26T14:16:04.192Z,32.70
2019-06-26T14:18:33.590Z,32.80
2019-06-26T14:21:02.060Z,32.90
2019-06-26T14:23:29.999Z,33.10
2019-06-26T14:25:57.926Z,33.20
2019-06-26T14:28:25.982Z,33.30
2019-06-26T14:30:53.929Z,33.00
2019-06-26T14:33:22.140Z,33.10
2019-06-26T14:35:50.641Z,32.80
2019-06-26T14:38:35.983Z,32.30
2019-06-26T14:41:05.696Z,32.00
2019-06-26T14:43:32.711Z,32.10
2019-06-26T14:45:59.847Z,32.00
2019-06-26T14:48:26.887Z,32.20
2019-06-26T14:50:54.940Z,32.10
2019-06-26T14:53:22.860Z,32.20
2019-06-26T14:55:50.900Z,32.10
2019-06-26T14:58:18.941Z,32.60
2019-06-26T15:00:47.424Z,32.80
2019-06-26T15:03:15.307Z,33.00
2019-06-26T15:05:43.744Z,33.00
2019-06-26T15:08:16.542Z,33.20
2019-06-26T15:10:44.658Z,33.00
2019-06-26T15:13:12.590Z,33.10
2019-06-26T15:15:40.582Z,32.70
2019-06-26T15:18:10.779Z,32.70
2019-06-26T15:20:39.959Z,33.00
2019-06-26T15:23:08.245Z,33.10
2019-06-26T15:25:36.151Z,33.00
2019-06-26T15:28:04.482Z,32.80
2019-06-26T15:30:34.358Z,32.90
2019-06-26T15:33:09.284Z,32.70
2019-06-26T15:35:39.763Z,32.40
2019-06-26T15:38:07.668Z,32.30
2019-06-26T15:40:36.032Z,32.40
2019-06-26T15:43:04.189Z,32.20
2019-06-26T15:45:32.342Z,32.10
2019-06-26T15:48:01.107Z,32.00
2019-06-26T15:50:28.991Z,31.80
2019-06-26T15:52:56.886Z,31.70
2019-06-26T15:55:24.884Z,31.50
2019-06-26T15:57:52.798Z,31.50
2019-06-26T16:00:23.890Z,31.30
2019-06-26T16:02:51.986Z,31.30
2019-06-26T16:05:19.984Z,31.20
2019-06-26T16:07:48.321Z,31.30
2019-06-26T16:10:17.356Z,31.20
2019-06-26T16:12:47.977Z,31.40
2019-06-26T16:15:15.268Z,31.50
2019-06-26T16:17:49.139Z,31.30
2019-06-26T16:20:17.283Z,31.40
2019-06-26T16:22:46.779Z,31.30
2019-06-26T16:25:14.967Z,31.40
2019-06-26T16:27:42.994Z,31.30
2019-06-26T16:30:13.365Z,31.40
2019-06-26T16:32:43.897Z,31.30
2019-06-26T16:35:12.553Z,31.20
2019-06-26T16:37:40.554Z,31.00
2019-06-26T16:40:08.929Z,31.00
2019-06-26T16:42:37.039Z,31.00
2019-06-26T16:45:09.520Z,30.90
2019-06-26T16:47:37.528Z,30.80
2019-06-26T16:50:05.622Z,30.80
2019-06-26T16:52:47.978Z,30.90
2019-06-26T16:55:04.023Z,30.90
2019-06-26T16:57:32.515Z,30.80
2019-06-26T17:00:09.642Z,30.80
2019-06-26T17:02:30.698Z,30.80
2019-06-26T17:04:58.585Z,30.70
2019-06-26T17:07:26.491Z,30.40
2019-06-26T17:09:58.042Z,30.30
2019-06-26T17:12:26.064Z,30.20
2019-06-26T17:14:54.123Z,30.00
2019-06-26T17:17:22.095Z,29.90
2019-06-26T17:19:50.369Z,29.60
2019-06-26T17:22:20.371Z,29.50
2019-06-26T17:24:48.418Z,29.60
2019-06-26T17:27:16.319Z,29.50
2019-06-26T17:29:44.333Z,29.50
2019-06-26T17:32:20.380Z,29.20
2019-06-26T17:34:48.595Z,29.10
2019-06-26T17:37:16.710Z,29.00
2019-06-26T17:39:45.035Z,29.00
2019-06-26T17:42:13.169Z,28.90
2019-06-26T17:44:43.377Z,28.80
2019-06-26T17:47:11.282Z,28.70
2019-06-26T17:49:39.302Z,28.60
2019-06-26T17:52:07.341Z,28.60
2019-06-26T17:54:35.447Z,28.50
2019-06-26T17:57:03.447Z,28.30
2019-06-26T17:59:32.317Z,28.20
2019-06-26T18:02:00.223Z,27.90
2019-06-26T18:04:28.203Z,27.80
2019-06-26T18:06:56.315Z,27.60
2019-06-26T18:09:24.274Z,27.50
2019-06-26T18:11:54.594Z,27.40
2019-06-26T18:14:22.674Z,27.30
2019-06-26T18:16:50.816Z,27.20
2019-06-26T18:19:19.139Z,27.20
2019-06-26T18:21:47.145Z,27.10
2019-06-26T18:24:16.034Z,26.90
2019-06-26T18:26:44.307Z,27.00
2019-06-26T18:29:12.217Z,27.10
2019-06-26T18:31:40.127Z,26.90
2019-06-26T18:34:08.198Z,26.80
2019-06-26T18:36:40.665Z,26.80
2019-06-26T18:39:08.647Z,26.80
2019-06-26T18:41:36.819Z,26.80
2019-06-26T18:44:04.812Z,26.70
2019-06-26T18:46:32.962Z,26.60
2019-06-26T18:49:07.421Z,26.50
2019-06-26T18:51:36.155Z,26.50
2019-06-26T18:54:04.679Z,26.50
2019-06-26T18:56:32.832Z,26.30
2019-06-26T18:59:00.983Z,26.30
2019-06-26T19:01:33.915Z,26.20
2019-06-26T19:04:01.931Z,26.20
2019-06-26T19:06:30.136Z,26.10
2019-06-26T19:08:58.280Z,26.00
2019-06-26T19:11:26.650Z,26.00
2019-06-26T19:13:55.106Z,25.90
2019-06-26T19:16:23.635Z,26.00
2019-06-26T19:18:51.549Z,26.00
2019-06-26T19:21:19.701Z,26.00
2019-06-26T19:23:48.701Z,25.80
2019-06-26T19:26:17.941Z,25.70
2019-06-26T19:28:49.582Z,25.60
2019-06-26T19:31:24.967Z,25.50
2019-06-26T19:33:53.414Z,25.50
2019-06-26T19:36:24.857Z,25.50
2019-06-26T19:38:54.312Z,25.50
2019-06-26T19:41:25.263Z,25.50
2019-06-26T19:43:54.268Z,25.30
2019-06-26T19:46:23.411Z,25.30
2019-06-26T19:48:51.858Z,25.10
2019-06-26T19:51:22.392Z,25.20
2019-06-26T19:53:49.554Z,25.20
2019-06-26T19:56:20.021Z,25.20
2019-06-26T19:58:47.846Z,25.00
2019-06-26T20:01:20.360Z,24.80
2019-06-26T20:03:49.170Z,24.70
2019-06-26T20:06:17.418Z,24.50
2019-06-26T20:08:54.401Z,24.40
2019-06-26T20:11:16.319Z,24.30
2019-06-26T20:13:48.309Z,24.20
2019-06-26T20:16:16.553Z,24.30
2019-06-26T20:18:44.557Z,24.30
2019-06-26T20:21:12.722Z,24.10
2019-06-26T20:23:45.027Z,24.10
2019-06-26T20:26:13.424Z,24.10
2019-06-26T20:28:41.339Z,24.10
2019-06-26T20:31:09.234Z,24.10
2019-06-26T20:33:37.336Z,24.00
2019-06-26T20:36:08.543Z,23.90
2019-06-26T20:38:36.446Z,24.00
2019-06-26T20:41:04.444Z,23.90
2019-06-26T20:43:32.554Z,23.90
2019-06-26T20:46:04.378Z,23.90
2019-06-26T20:48:32.543Z,23.80
2019-06-26T20:51:00.539Z,23.80
2019-06-26T20:53:28.506Z,23.90
2019-06-26T20:55:56.716Z,23.80
2019-06-26T20:58:27.975Z,23.70
2019-06-26T21:01:33.375Z,23.60
2019-06-26T21:04:03.927Z,23.50
2019-06-26T21:06:32.374Z,23.20
2019-06-26T21:09:04.198Z,23.30
2019-06-26T21:11:32.109Z,23.20
2019-06-26T21:14:00.226Z,23.10
2019-06-26T21:16:28.243Z,23.20
2019-06-26T21:18:56.155Z,23.00
2019-06-26T21:21:26.505Z,23.20
2019-06-26T21:23:54.522Z,23.10
2019-06-26T21:26:22.443Z,23.00
2019-06-26T21:28:52.921Z,22.80
2019-06-26T21:31:20.934Z,22.80
2019-06-26T21:33:48.855Z,22.70
2019-06-26T21:36:16.761Z,22.80
2019-06-26T21:38:44.883Z,22.60
2019-06-26T21:41:12.784Z,22.60
2019-06-26T21:43:40.837Z,22.60
2019-06-26T21:46:08.724Z,22.50
2019-06-26T21:48:36.669Z,22.40
2019-06-26T21:51:04.807Z,22.30
2019-06-26T21:53:33.140Z,22.30
2019-06-26T21:56:01.122Z,22.30
2019-06-26T21:58:29.076Z,22.30
2019-06-26T22:00:58.034Z,22.30
2019-06-26T22:03:26.580Z,22.40
2019-06-26T22:05:54.766Z,22.20
2019-06-26T22:08:22.830Z,22.10
2019-06-26T22:10:50.983Z,22.10
2019-06-26T22:13:19.086Z,22.00
2019-06-26T22:15:46.993Z,21.90
2019-06-26T22:18:14.905Z,21.80
2019-06-26T22:20:42.898Z,21.70
2019-06-26T22:23:11.110Z,21.70
2019-06-26T22:25:50.312Z,21.60
2019-06-26T22:28:09.199Z,21.40
2019-06-26T22:30:37.256Z,21.20
2019-06-26T22:33:05.326Z,21.10
2019-06-26T22:35:33.336Z,21.10
2019-06-26T22:38:01.590Z,20.90
2019-06-26T22:40:29.591Z,20.80
2019-06-26T22:42:57.494Z,20.80
2019-06-26T22:45:25.616Z,20.60
2019-06-26T22:47:56.467Z,20.50
2019-06-26T22:50:23.586Z,20.50
2019-06-26T22:52:51.580Z,20.40
2019-06-26T22:55:19.820Z,20.40
2019-06-26T22:57:47.941Z,20.30
2019-06-26T23:00:17.432Z,20.30
2019-06-26T23:02:45.523Z,20.30
2019-06-26T23:05:14.864Z,20.10
2019-06-26T23:07:42.363Z,20.10
2019-06-26T23:10:11.274Z,20.00
2019-06-26T23:12:42.323Z,20.00
2019-06-26T23:15:11.439Z,19.80
2019-06-26T23:17:38.611Z,19.80
2019-06-26T23:20:07.143Z,19.60
2019-06-26T23:22:36.679Z,19.50
2019-06-26T23:25:08.911Z,19.50
2019-06-26T23:27:38.523Z,19.30
2019-06-26T23:30:13.889Z,19.30
2019-06-26T23:32:42.384Z,19.20
2019-06-26T23:35:11.011Z,19.30
2019-06-26T23:37:39.454Z,19.30
2019-06-26T23:40:07.861Z,19.20
2019-06-26T23:42:36.880Z,19.00
2019-06-26T23:45:05.416Z,18.70
2019-06-26T23:47:33.578Z,18.50
2019-06-26T23:50:02.298Z,18.40
2019-06-26T23:52:30.311Z,18.30
2019-06-26T23:54:58.542Z,18.30
2019-06-26T23:57:26.692Z,18.20
2019-06-26T23:59:54.840Z,18.20
